sensor_id;sensor_type;location;lat;lon;timestamp;P1;durP1;ratioP1;P2;durP2;ratioP2
70367;SDS011;57789;53.868;10.728;2022-12-31T00:01:12;5.83;;;4.83;;
70367;SDS011;57789;53.868;10.728;2022-12-31T00:03:42;4.77;;;4.27;;
70367;SDS011;57789;53.868;10.728;2022-12-31T00:06:22;4.90;;;4.03;;
70367;SDS011;57789;53.868;10.728;2022-12-31T00:08:56;5.07;;;4.60;;
70367;SDS011;57789;53.868;10.728;2022-12-31T00:11:23;4.80;;;4.40;;
70367;SDS011;57789;53.868;10.728;2022-12-31T00:13:50;5.17;;;4.67;;
70367;SDS011;57789;53.868;10.728;2022-12-31T00:16:18;4.60;;;4.20;;
70367;SDS011;57789;53.868;10.728;2022-12-31T00:18:46;8.17;;;4.40;;
70367;SDS011;57789;53.868;10.728;2022-12-31T00:21:13;4.97;;;4.30;;
70367;SDS011;57789;53.868;10.728;2022-12-31T00:23:40;5.53;;;4.20;;
70367;SDS011;57789;53.868;10.728;2022-12-31T00:26:09;4.57;;;4.10;;
70367;SDS011;57789;53.868;10.728;2022-12-31T00:28:36;4.97;;;3.50;;
70367;SDS011;57789;53.868;10.728;2022-12-31T00:31:17;4.67;;;4.27;;
70367;SDS011;57789;53.868;10.728;2022-12-31T00:33:45;4.67;;;4.23;;
70367;SDS011;57789;53.868;10.728;2022-12-31T00:36:12;4.97;;;3.53;;
70367;SDS011;57789;53.868;10.728;2022-12-31T00:38:41;5.67;;;3.93;;
70367;SDS011;57789;53.868;10.728;2022-12-31T00:41:08;5.83;;;3.90;;
70367;SDS011;57789;53.868;10.728;2022-12-31T00:43:34;3.70;;;3.40;;
70367;SDS011;57789;53.868;10.728;2022-12-31T00:46:01;6.43;;;3.90;;
70367;SDS011;57789;53.868;10.728;2022-12-31T00:48:28;4.40;;;3.60;;
70367;SDS011;57789;53.868;10.728;2022-12-31T00:50:54;4.53;;;4.13;;
70367;SDS011;57789;53.868;10.728;2022-12-31T00:53:20;3.93;;;3.60;;
70367;SDS011;57789;53.868;10.728;2022-12-31T00:55:46;4.93;;;4.43;;
70367;SDS011;57789;53.868;10.728;2022-12-31T00:58:12;5.30;;;3.73;;
70367;SDS011;57789;53.868;10.728;2022-12-31T01:00:38;4.37;;;3.97;;
70367;SDS011;57789;53.868;10.728;2022-12-31T01:03:04;4.97;;;3.93;;
70367;SDS011;57789;53.868;10.728;2022-12-31T01:05:31;5.23;;;3.70;;
70367;SDS011;57789;53.868;10.728;2022-12-31T01:07:58;4.37;;;3.77;;
70367;SDS011;57789;53.868;10.728;2022-12-31T01:10:25;3.80;;;3.37;;
70367;SDS011;57789;53.868;10.728;2022-12-31T01:13:09;4.47;;;3.37;;
70367;SDS011;57789;53.868;10.728;2022-12-31T01:15:36;6.20;;;3.70;;
70367;SDS011;57789;53.868;10.728;2022-12-31T01:18:03;4.97;;;4.00;;
70367;SDS011;57789;53.868;10.728;2022-12-31T01:20:34;6.60;;;3.97;;
70367;SDS011;57789;53.868;10.728;2022-12-31T01:23:04;5.33;;;3.40;;
70367;SDS011;57789;53.868;10.728;2022-12-31T01:25:33;5.27;;;4.00;;
70367;SDS011;57789;53.868;10.728;2022-12-31T01:28:00;3.83;;;3.53;;
70367;SDS011;57789;53.868;10.728;2022-12-31T01:30:26;8.67;;;4.13;;
70367;SDS011;57789;53.868;10.728;2022-12-31T01:32:52;3.83;;;3.50;;
70367;SDS011;57789;53.868;10.728;2022-12-31T01:35:18;4.20;;;3.00;;
70367;SDS011;57789;53.868;10.728;2022-12-31T01:37:44;9.27;;;3.27;;
70367;SDS011;57789;53.868;10.728;2022-12-31T01:40:10;4.03;;;3.60;;
70367;SDS011;57789;53.868;10.728;2022-12-31T01:42:36;5.37;;;3.50;;
70367;SDS011;57789;53.868;10.728;2022-12-31T01:45:02;5.07;;;3.73;;
70367;SDS011;57789;53.868;10.728;2022-12-31T01:47:35;4.93;;;3.43;;
70367;SDS011;57789;53.868;10.728;2022-12-31T01:50:15;4.27;;;3.80;;
70367;SDS011;57789;53.868;10.728;2022-12-31T01:52:50;6.70;;;4.07;;
70367;SDS011;57789;53.868;10.728;2022-12-31T01:57:55;4.27;;;3.87;;
70367;SDS011;57789;53.868;10.728;2022-12-31T02:00:25;5.33;;;4.00;;
70367;SDS011;57789;53.868;10.728;2022-12-31T02:02:51;6.07;;;4.00;;
70367;SDS011;57789;53.868;10.728;2022-12-31T02:07:55;6.07;;;4.87;;
70367;SDS011;57789;53.868;10.728;2022-12-31T02:10:22;4.43;;;4.03;;
70367;SDS011;57789;53.868;10.728;2022-12-31T02:12:48;4.03;;;3.67;;
70367;SDS011;57789;53.868;10.728;2022-12-31T02:15:16;4.90;;;4.13;;
70367;SDS011;57789;53.868;10.728;2022-12-31T02:17:58;5.50;;;4.20;;
70367;SDS011;57789;53.868;10.728;2022-12-31T02:21:05;5.50;;;3.80;;
70367;SDS011;57789;53.868;10.728;2022-12-31T02:29:35;8.10;;;4.30;;
70367;SDS011;57789;53.868;10.728;2022-12-31T02:32:47;4.03;;;3.60;;
70367;SDS011;57789;53.868;10.728;2022-12-31T02:37:49;4.87;;;3.80;;
70367;SDS011;57789;53.868;10.728;2022-12-31T02:40:18;3.77;;;3.00;;
70367;SDS011;57789;53.868;10.728;2022-12-31T02:42:46;5.50;;;4.87;;
70367;SDS011;57789;53.868;10.728;2022-12-31T02:45:12;13.43;;;3.27;;
70367;SDS011;57789;53.868;10.728;2022-12-31T02:50:54;7.73;;;4.60;;
70367;SDS011;57789;53.868;10.728;2022-12-31T02:56:18;4.20;;;3.40;;
70367;SDS011;57789;53.868;10.728;2022-12-31T02:59:02;3.80;;;3.50;;
70367;SDS011;57789;53.868;10.728;2022-12-31T03:01:53;4.33;;;3.20;;
70367;SDS011;57789;53.868;10.728;2022-12-31T03:04:40;3.23;;;2.93;;
70367;SDS011;57789;53.868;10.728;2022-12-31T03:07:09;7.43;;;3.63;;
70367;SDS011;57789;53.868;10.728;2022-12-31T03:09:39;3.90;;;3.10;;
70367;SDS011;57789;53.868;10.728;2022-12-31T03:12:05;3.93;;;3.53;;
70367;SDS011;57789;53.868;10.728;2022-12-31T03:14:52;7.10;;;3.20;;
70367;SDS011;57789;53.868;10.728;2022-12-31T03:17:18;4.07;;;3.70;;
70367;SDS011;57789;53.868;10.728;2022-12-31T03:19:44;3.27;;;2.97;;
70367;SDS011;57789;53.868;10.728;2022-12-31T03:22:29;4.30;;;3.20;;
70367;SDS011;57789;53.868;10.728;2022-12-31T03:25:00;3.80;;;3.50;;
70367;SDS011;57789;53.868;10.728;2022-12-31T03:27:47;7.77;;;4.27;;
70367;SDS011;57789;53.868;10.728;2022-12-31T03:30:14;4.83;;;3.17;;
70367;SDS011;57789;53.868;10.728;2022-12-31T03:32:41;4.13;;;3.13;;
70367;SDS011;57789;53.868;10.728;2022-12-31T03:35:09;3.07;;;2.60;;
70367;SDS011;57789;53.868;10.728;2022-12-31T03:37:36;4.30;;;3.90;;
70367;SDS011;57789;53.868;10.728;2022-12-31T03:40:04;3.07;;;2.77;;
70367;SDS011;57789;53.868;10.728;2022-12-31T03:42:30;4.67;;;3.37;;
70367;SDS011;57789;53.868;10.728;2022-12-31T03:44:56;3.60;;;3.30;;
70367;SDS011;57789;53.868;10.728;2022-12-31T03:47:22;4.00;;;3.37;;
70367;SDS011;57789;53.868;10.728;2022-12-31T03:49:49;4.53;;;3.87;;
70367;SDS011;57789;53.868;10.728;2022-12-31T03:52:15;3.67;;;3.20;;
70367;SDS011;57789;53.868;10.728;2022-12-31T03:54:40;6.43;;;3.43;;
70367;SDS011;57789;53.868;10.728;2022-12-31T03:57:06;3.80;;;3.50;;
70367;SDS011;57789;53.868;10.728;2022-12-31T03:59:32;4.40;;;3.53;;
70367;SDS011;57789;53.868;10.728;2022-12-31T04:01:57;3.97;;;3.57;;
70367;SDS011;57789;53.868;10.728;2022-12-31T04:04:23;4.13;;;3.60;;
70367;SDS011;57789;53.868;10.728;2022-12-31T04:06:49;6.47;;;3.50;;
70367;SDS011;57789;53.868;10.728;2022-12-31T04:09:14;4.27;;;3.87;;
70367;SDS011;57789;53.868;10.728;2022-12-31T04:11:40;3.90;;;3.50;;
70367;SDS011;57789;53.868;10.728;2022-12-31T04:14:06;5.37;;;4.37;;
70367;SDS011;57789;53.868;10.728;2022-12-31T04:16:33;4.93;;;3.43;;
70367;SDS011;57789;53.868;10.728;2022-12-31T04:18:59;4.77;;;3.97;;
70367;SDS011;57789;53.868;10.728;2022-12-31T04:21:27;4.40;;;3.70;;
70367;SDS011;57789;53.868;10.728;2022-12-31T04:23:56;4.77;;;4.37;;
70367;SDS011;57789;53.868;10.728;2022-12-31T04:26:23;5.63;;;4.10;;
70367;SDS011;57789;53.868;10.728;2022-12-31T04:28:49;4.80;;;3.80;;
70367;SDS011;57789;53.868;10.728;2022-12-31T04:31:15;4.80;;;3.90;;
70367;SDS011;57789;53.868;10.728;2022-12-31T04:33:41;4.80;;;4.40;;
70367;SDS011;57789;53.868;10.728;2022-12-31T04:36:06;4.10;;;3.70;;
70367;SDS011;57789;53.868;10.728;2022-12-31T04:38:33;5.53;;;3.83;;
70367;SDS011;57789;53.868;10.728;2022-12-31T04:40:59;6.43;;;4.07;;
70367;SDS011;57789;53.868;10.728;2022-12-31T04:43:48;5.30;;;4.30;;
70367;SDS011;57789;53.868;10.728;2022-12-31T04:46:17;6.17;;;4.57;;
70367;SDS011;57789;53.868;10.728;2022-12-31T04:48:44;5.03;;;3.90;;
70367;SDS011;57789;53.868;10.728;2022-12-31T04:51:10;5.10;;;3.57;;
70367;SDS011;57789;53.868;10.728;2022-12-31T04:53:36;4.37;;;4.07;;
70367;SDS011;57789;53.868;10.728;2022-12-31T04:56:02;5.20;;;4.40;;
70367;SDS011;57789;53.868;10.728;2022-12-31T04:58:28;5.63;;;4.23;;
70367;SDS011;57789;53.868;10.728;2022-12-31T05:00:54;4.70;;;4.40;;
70367;SDS011;57789;53.868;10.728;2022-12-31T05:03:22;4.47;;;4.10;;
70367;SDS011;57789;53.868;10.728;2022-12-31T05:05:49;7.87;;;4.30;;
70367;SDS011;57789;53.868;10.728;2022-12-31T05:08:15;5.70;;;4.60;;
70367;SDS011;57789;53.868;10.728;2022-12-31T05:10:42;7.83;;;5.10;;
70367;SDS011;57789;53.868;10.728;2022-12-31T05:13:10;5.87;;;5.27;;
70367;SDS011;57789;53.868;10.728;2022-12-31T05:15:36;5.97;;;5.30;;
70367;SDS011;57789;53.868;10.728;2022-12-31T05:18:02;5.33;;;4.80;;
70367;SDS011;57789;53.868;10.728;2022-12-31T05:20:28;4.80;;;4.27;;
70367;SDS011;57789;53.868;10.728;2022-12-31T05:22:54;6.20;;;4.17;;
70367;SDS011;57789;53.868;10.728;2022-12-31T05:25:19;4.83;;;3.63;;
70367;SDS011;57789;53.868;10.728;2022-12-31T05:27:45;7.77;;;6.33;;
70367;SDS011;57789;53.868;10.728;2022-12-31T05:30:11;3.17;;;2.97;;
70367;SDS011;57789;53.868;10.728;2022-12-31T05:32:37;3.10;;;2.90;;
70367;SDS011;57789;53.868;10.728;2022-12-31T05:35:03;2.60;;;2.40;;
70367;SDS011;57789;53.868;10.728;2022-12-31T05:37:30;1.83;;;1.70;;
70367;SDS011;57789;53.868;10.728;2022-12-31T05:39:57;3.60;;;1.60;;
70367;SDS011;57789;53.868;10.728;2022-12-31T05:42:23;2.27;;;1.77;;
70367;SDS011;57789;53.868;10.728;2022-12-31T05:44:49;11.60;;;8.13;;
70367;SDS011;57789;53.868;10.728;2022-12-31T05:47:15;3.17;;;1.80;;
70367;SDS011;57789;53.868;10.728;2022-12-31T05:49:41;2.90;;;2.10;;
70367;SDS011;57789;53.868;10.728;2022-12-31T05:52:07;3.10;;;1.40;;
70367;SDS011;57789;53.868;10.728;2022-12-31T05:54:33;2.13;;;1.50;;
70367;SDS011;57789;53.868;10.728;2022-12-31T05:56:59;2.27;;;1.80;;
70367;SDS011;57789;53.868;10.728;2022-12-31T05:59:25;1.50;;;1.40;;
70367;SDS011;57789;53.868;10.728;2022-12-31T06:01:51;2.00;;;1.60;;
70367;SDS011;57789;53.868;10.728;2022-12-31T06:04:16;1.93;;;1.60;;
70367;SDS011;57789;53.868;10.728;2022-12-31T06:06:42;2.43;;;1.30;;
70367;SDS011;57789;53.868;10.728;2022-12-31T06:09:08;3.27;;;1.60;;
70367;SDS011;57789;53.868;10.728;2022-12-31T06:11:34;2.20;;;1.37;;
70367;SDS011;57789;53.868;10.728;2022-12-31T06:13:59;3.10;;;1.37;;
70367;SDS011;57789;53.868;10.728;2022-12-31T06:16:26;5.40;;;1.73;;
70367;SDS011;57789;53.868;10.728;2022-12-31T06:18:52;2.40;;;1.87;;
70367;SDS011;57789;53.868;10.728;2022-12-31T06:21:18;1.67;;;1.57;;
70367;SDS011;57789;53.868;10.728;2022-12-31T06:23:45;4.07;;;2.10;;
70367;SDS011;57789;53.868;10.728;2022-12-31T06:26:11;2.20;;;2.10;;
70367;SDS011;57789;53.868;10.728;2022-12-31T06:28:36;2.00;;;1.90;;
70367;SDS011;57789;53.868;10.728;2022-12-31T06:31:03;3.23;;;1.90;;
70367;SDS011;57789;53.868;10.728;2022-12-31T06:33:31;2.80;;;2.60;;
70367;SDS011;57789;53.868;10.728;2022-12-31T06:35:58;2.70;;;2.50;;
70367;SDS011;57789;53.868;10.728;2022-12-31T06:38:27;5.40;;;2.90;;
70367;SDS011;57789;53.868;10.728;2022-12-31T06:40:54;3.00;;;2.70;;
70367;SDS011;57789;53.868;10.728;2022-12-31T06:43:20;4.07;;;3.20;;
70367;SDS011;57789;53.868;10.728;2022-12-31T06:45:47;2.77;;;2.53;;
70367;SDS011;57789;53.868;10.728;2022-12-31T06:48:13;3.17;;;2.70;;
70367;SDS011;57789;53.868;10.728;2022-12-31T06:50:39;3.50;;;2.57;;
70367;SDS011;57789;53.868;10.728;2022-12-31T06:53:05;2.33;;;2.20;;
70367;SDS011;57789;53.868;10.728;2022-12-31T06:55:31;3.00;;;2.60;;
70367;SDS011;57789;53.868;10.728;2022-12-31T06:57:57;3.90;;;3.00;;
70367;SDS011;57789;53.868;10.728;2022-12-31T07:00:23;3.10;;;2.63;;
70367;SDS011;57789;53.868;10.728;2022-12-31T07:05:45;3.03;;;2.43;;
70367;SDS011;57789;53.868;10.728;2022-12-31T07:11:25;6.10;;;2.47;;
70367;SDS011;57789;53.868;10.728;2022-12-31T07:19:21;2.20;;;1.80;;
70367;SDS011;57789;53.868;10.728;2022-12-31T07:21:51;2.13;;;1.70;;
70367;SDS011;57789;53.868;10.728;2022-12-31T07:24:19;2.10;;;1.90;;
70367;SDS011;57789;53.868;10.728;2022-12-31T07:32:21;1.70;;;1.60;;
70367;SDS011;57789;53.868;10.728;2022-12-31T07:35:03;1.50;;;1.40;;
70367;SDS011;57789;53.868;10.728;2022-12-31T07:37:48;2.77;;;1.30;;
70367;SDS011;57789;53.868;10.728;2022-12-31T07:46:01;1.53;;;1.10;;
70367;SDS011;57789;53.868;10.728;2022-12-31T07:48:36;1.30;;;1.20;;
70367;SDS011;57789;53.868;10.728;2022-12-31T07:51:02;1.10;;;1.00;;
70367;SDS011;57789;53.868;10.728;2022-12-31T07:53:28;1.17;;;1.07;;
70367;SDS011;57789;53.868;10.728;2022-12-31T07:55:56;2.40;;;1.07;;
70367;SDS011;57789;53.868;10.728;2022-12-31T08:01:34;3.30;;;1.10;;
70367;SDS011;57789;53.868;10.728;2022-12-31T08:12:16;1.57;;;0.93;;
70367;SDS011;57789;53.868;10.728;2022-12-31T08:14:47;2.70;;;0.80;;
70367;SDS011;57789;53.868;10.728;2022-12-31T08:17:17;1.90;;;0.90;;
70367;SDS011;57789;53.868;10.728;2022-12-31T08:19:44;2.97;;;1.03;;
70367;SDS011;57789;53.868;10.728;2022-12-31T08:30:03;1.27;;;1.00;;
70367;SDS011;57789;53.868;10.728;2022-12-31T08:32:51;1.03;;;0.60;;
70367;SDS011;57789;53.868;10.728;2022-12-31T08:39:03;1.30;;;0.80;;
70367;SDS011;57789;53.868;10.728;2022-12-31T08:41:46;1.83;;;0.80;;
70367;SDS011;57789;53.868;10.728;2022-12-31T08:50:11;1.23;;;0.60;;
70367;SDS011;57789;53.868;10.728;2022-12-31T08:52:42;1.90;;;1.10;;
70367;SDS011;57789;53.868;10.728;2022-12-31T08:55:12;1.20;;;0.60;;
70367;SDS011;57789;53.868;10.728;2022-12-31T08:57:53;2.97;;;0.60;;
70367;SDS011;57789;53.868;10.728;2022-12-31T09:00:41;0.70;;;0.60;;
70367;SDS011;57789;53.868;10.728;2022-12-31T09:03:42;0.60;;;0.40;;
70367;SDS011;57789;53.868;10.728;2022-12-31T09:11:44;4.07;;;1.20;;
70367;SDS011;57789;53.868;10.728;2022-12-31T09:17:39;1.10;;;0.70;;
70367;SDS011;57789;53.868;10.728;2022-12-31T09:20:21;0.70;;;0.60;;
70367;SDS011;57789;53.868;10.728;2022-12-31T09:22:53;0.90;;;0.60;;
70367;SDS011;57789;53.868;10.728;2022-12-31T09:25:20;2.73;;;0.90;;
70367;SDS011;57789;53.868;10.728;2022-12-31T09:27:50;2.20;;;0.80;;
70367;SDS011;57789;53.868;10.728;2022-12-31T09:30:27;1.50;;;0.70;;
70367;SDS011;57789;53.868;10.728;2022-12-31T09:36:02;1.30;;;1.03;;
70367;SDS011;57789;53.868;10.728;2022-12-31T09:38:40;1.17;;;1.00;;
70367;SDS011;57789;53.868;10.728;2022-12-31T09:55:30;2.37;;;2.07;;
70367;SDS011;57789;53.868;10.728;2022-12-31T10:14:45;7.27;;;4.00;;
70367;SDS011;57789;53.868;10.728;2022-12-31T10:23:09;1.73;;;1.17;;
70367;SDS011;57789;53.868;10.728;2022-12-31T10:35:11;1.53;;;1.30;;
70367;SDS011;57789;53.868;10.728;2022-12-31T10:37:19;10.50;;;6.70;;
70367;SDS011;57789;53.868;10.728;2022-12-31T10:54:20;17.43;;;10.70;;
70367;SDS011;57789;53.868;10.728;2022-12-31T10:56:59;4.00;;;2.03;;
70367;SDS011;57789;53.868;10.728;2022-12-31T11:00:14;1.17;;;1.07;;
70367;SDS011;57789;53.868;10.728;2022-12-31T11:19:20;1.20;;;1.00;;
70367;SDS011;57789;53.868;10.728;2022-12-31T11:22:05;1.43;;;1.23;;
70367;SDS011;57789;53.868;10.728;2022-12-31T11:32:51;1.87;;;0.93;;
70367;SDS011;57789;53.868;10.728;2022-12-31T11:38:20;11.70;;;7.33;;
70367;SDS011;57789;53.868;10.728;2022-12-31T11:41:08;5.90;;;4.43;;
70367;SDS011;57789;53.868;10.728;2022-12-31T11:46:47;0.80;;;0.70;;
70367;SDS011;57789;53.868;10.728;2022-12-31T11:57:35;1.70;;;0.90;;
70367;SDS011;57789;53.868;10.728;2022-12-31T12:02:42;1.57;;;1.10;;
70367;SDS011;57789;53.868;10.728;2022-12-31T12:05:15;1.90;;;0.77;;
70367;SDS011;57789;53.868;10.728;2022-12-31T12:07:44;2.67;;;1.53;;
70367;SDS011;57789;53.868;10.728;2022-12-31T12:10:16;1.10;;;0.80;;
70367;SDS011;57789;53.868;10.728;2022-12-31T12:12:43;0.70;;;0.60;;
70367;SDS011;57789;53.868;10.728;2022-12-31T12:15:10;1.53;;;0.70;;
70367;SDS011;57789;53.868;10.728;2022-12-31T12:17:41;2.10;;;1.00;;
70367;SDS011;57789;53.868;10.728;2022-12-31T12:22:57;1.10;;;0.90;;
70367;SDS011;57789;53.868;10.728;2022-12-31T12:25:25;15.73;;;10.30;;
70367;SDS011;57789;53.868;10.728;2022-12-31T12:28:09;1.10;;;0.60;;
70367;SDS011;57789;53.868;10.728;2022-12-31T12:30:42;1.20;;;0.90;;
70367;SDS011;57789;53.868;10.728;2022-12-31T12:33:16;16.03;;;6.33;;
70367;SDS011;57789;53.868;10.728;2022-12-31T12:35:44;1.97;;;1.60;;
70367;SDS011;57789;53.868;10.728;2022-12-31T12:38:14;1.27;;;0.93;;
70367;SDS011;57789;53.868;10.728;2022-12-31T12:40:51;1.13;;;0.90;;
70367;SDS011;57789;53.868;10.728;2022-12-31T12:43:31;1.40;;;0.90;;
70367;SDS011;57789;53.868;10.728;2022-12-31T12:46:20;2.70;;;1.67;;
70367;SDS011;57789;53.868;10.728;2022-12-31T12:48:48;2.10;;;1.10;;
70367;SDS011;57789;53.868;10.728;2022-12-31T12:57:16;1.10;;;0.80;;
70367;SDS011;57789;53.868;10.728;2022-12-31T13:20:03;0.93;;;0.60;;
70367;SDS011;57789;53.868;10.728;2022-12-31T13:23:29;1.67;;;0.80;;
70367;SDS011;57789;53.868;10.728;2022-12-31T13:26:02;3.57;;;1.37;;
70367;SDS011;57789;53.868;10.728;2022-12-31T13:28:38;1.97;;;1.47;;
70367;SDS011;57789;53.868;10.728;2022-12-31T13:31:29;7.20;;;2.40;;
70367;SDS011;57789;53.868;10.728;2022-12-31T13:34:00;2.97;;;1.00;;
70367;SDS011;57789;53.868;10.728;2022-12-31T13:36:34;1.33;;;0.70;;
70367;SDS011;57789;53.868;10.728;2022-12-31T13:39:06;0.70;;;0.70;;
70367;SDS011;57789;53.868;10.728;2022-12-31T13:41:44;0.70;;;0.70;;
70367;SDS011;57789;53.868;10.728;2022-12-31T13:56:13;2.20;;;0.73;;
70367;SDS011;57789;53.868;10.728;2022-12-31T14:04:38;3.40;;;1.10;;
70367;SDS011;57789;53.868;10.728;2022-12-31T14:09:47;2.20;;;0.90;;
70367;SDS011;57789;53.868;10.728;2022-12-31T14:25:52;4.17;;;2.77;;
70367;SDS011;57789;53.868;10.728;2022-12-31T14:28:27;2.57;;;1.17;;
70367;SDS011;57789;53.868;10.728;2022-12-31T14:31:01;4.07;;;1.40;;
70367;SDS011;57789;53.868;10.728;2022-12-31T14:36:53;1.27;;;0.73;;
70367;SDS011;57789;53.868;10.728;2022-12-31T14:48:08;1.40;;;0.80;;
70367;SDS011;57789;53.868;10.728;2022-12-31T14:50:45;0.90;;;0.90;;
70367;SDS011;57789;53.868;10.728;2022-12-31T14:53:22;1.20;;;0.90;;
70367;SDS011;57789;53.868;10.728;2022-12-31T14:56:03;2.60;;;0.80;;
70367;SDS011;57789;53.868;10.728;2022-12-31T14:58:34;1.90;;;1.20;;
70367;SDS011;57789;53.868;10.728;2022-12-31T15:03:34;14.00;;;10.77;;
70367;SDS011;57789;53.868;10.728;2022-12-31T15:06:13;1.93;;;1.10;;
70367;SDS011;57789;53.868;10.728;2022-12-31T15:11:49;2.60;;;2.40;;
70367;SDS011;57789;53.868;10.728;2022-12-31T15:28:04;2.87;;;2.40;;
70367;SDS011;57789;53.868;10.728;2022-12-31T15:30:34;2.90;;;2.17;;
70367;SDS011;57789;53.868;10.728;2022-12-31T15:33:05;5.57;;;4.20;;
70367;SDS011;57789;53.868;10.728;2022-12-31T15:35:45;18.87;;;12.30;;
70367;SDS011;57789;53.868;10.728;2022-12-31T15:40:47;8.43;;;6.97;;
70367;SDS011;57789;53.868;10.728;2022-12-31T15:45:58;5.37;;;4.70;;
70367;SDS011;57789;53.868;10.728;2022-12-31T15:48:34;10.30;;;8.93;;
70367;SDS011;57789;53.868;10.728;2022-12-31T15:51:34;7.20;;;4.70;;
70367;SDS011;57789;53.868;10.728;2022-12-31T15:54:01;13.90;;;9.37;;
70367;SDS011;57789;53.868;10.728;2022-12-31T15:56:41;9.47;;;7.40;;
70367;SDS011;57789;53.868;10.728;2022-12-31T15:59:12;29.23;;;17.70;;
70367;SDS011;57789;53.868;10.728;2022-12-31T16:01:41;17.17;;;11.57;;
70367;SDS011;57789;53.868;10.728;2022-12-31T16:06:42;19.30;;;14.30;;
70367;SDS011;57789;53.868;10.728;2022-12-31T16:09:16;20.30;;;5.83;;
70367;SDS011;57789;53.868;10.728;2022-12-31T16:11:49;17.13;;;12.00;;
70367;SDS011;57789;53.868;10.728;2022-12-31T16:14:19;74.97;;;48.23;;
70367;SDS011;57789;53.868;10.728;2022-12-31T16:17:00;22.70;;;14.90;;
70367;SDS011;57789;53.868;10.728;2022-12-31T16:22:00;5.13;;;3.80;;
70367;SDS011;57789;53.868;10.728;2022-12-31T16:24:32;37.53;;;26.77;;
70367;SDS011;57789;53.868;10.728;2022-12-31T16:27:00;6.73;;;5.20;;
70367;SDS011;57789;53.868;10.728;2022-12-31T16:29:29;6.13;;;5.20;;
70367;SDS011;57789;53.868;10.728;2022-12-31T16:31:55;20.37;;;9.00;;
70367;SDS011;57789;53.868;10.728;2022-12-31T16:34:24;9.50;;;5.57;;
70367;SDS011;57789;53.868;10.728;2022-12-31T16:40:06;12.90;;;7.53;;
70367;SDS011;57789;53.868;10.728;2022-12-31T16:42:16;8.97;;;7.00;;
70367;SDS011;57789;53.868;10.728;2022-12-31T16:44:46;11.00;;;7.23;;
70367;SDS011;57789;53.868;10.728;2022-12-31T16:47:25;4.97;;;3.80;;
70367;SDS011;57789;53.868;10.728;2022-12-31T16:50:03;7.17;;;5.20;;
70367;SDS011;57789;53.868;10.728;2022-12-31T16:55:08;6.90;;;5.93;;
70367;SDS011;57789;53.868;10.728;2022-12-31T16:57:50;7.83;;;6.00;;
70367;SDS011;57789;53.868;10.728;2022-12-31T17:00:20;10.70;;;6.30;;
70367;SDS011;57789;53.868;10.728;2022-12-31T17:06:31;13.40;;;9.83;;
70367;SDS011;57789;53.868;10.728;2022-12-31T17:14:14;10.63;;;5.43;;
70367;SDS011;57789;53.868;10.728;2022-12-31T17:17:04;7.47;;;4.90;;
70367;SDS011;57789;53.868;10.728;2022-12-31T17:19:39;9.90;;;6.90;;
70367;SDS011;57789;53.868;10.728;2022-12-31T17:22:41;7.37;;;4.13;;
70367;SDS011;57789;53.868;10.728;2022-12-31T17:28:01;10.60;;;6.90;;
70367;SDS011;57789;53.868;10.728;2022-12-31T17:33:24;9.73;;;7.13;;
70367;SDS011;57789;53.868;10.728;2022-12-31T17:36:11;9.50;;;7.10;;
70367;SDS011;57789;53.868;10.728;2022-12-31T17:38:43;18.90;;;10.93;;
70367;SDS011;57789;53.868;10.728;2022-12-31T17:41:13;7.80;;;5.83;;
70367;SDS011;57789;53.868;10.728;2022-12-31T17:43:54;8.17;;;5.00;;
70367;SDS011;57789;53.868;10.728;2022-12-31T17:46:21;8.40;;;5.37;;
70367;SDS011;57789;53.868;10.728;2022-12-31T17:48:49;8.10;;;4.83;;
70367;SDS011;57789;53.868;10.728;2022-12-31T17:51:29;7.77;;;4.70;;
70367;SDS011;57789;53.868;10.728;2022-12-31T17:53:55;17.47;;;7.50;;
70367;SDS011;57789;53.868;10.728;2022-12-31T17:56:23;11.70;;;8.20;;
70367;SDS011;57789;53.868;10.728;2022-12-31T17:58:50;19.27;;;12.10;;
70367;SDS011;57789;53.868;10.728;2022-12-31T18:01:19;9.83;;;7.07;;
70367;SDS011;57789;53.868;10.728;2022-12-31T18:03:48;6.80;;;3.80;;
70367;SDS011;57789;53.868;10.728;2022-12-31T18:06:17;3.90;;;3.20;;
70367;SDS011;57789;53.868;10.728;2022-12-31T18:08:44;7.00;;;4.17;;
70367;SDS011;57789;53.868;10.728;2022-12-31T18:11:12;4.80;;;3.17;;
70367;SDS011;57789;53.868;10.728;2022-12-31T18:13:43;3.87;;;2.90;;
70367;SDS011;57789;53.868;10.728;2022-12-31T18:16:13;3.10;;;2.40;;
70367;SDS011;57789;53.868;10.728;2022-12-31T18:18:39;4.03;;;2.90;;
70367;SDS011;57789;53.868;10.728;2022-12-31T18:21:28;6.40;;;2.77;;
70367;SDS011;57789;53.868;10.728;2022-12-31T18:23:52;7.07;;;3.27;;
70367;SDS011;57789;53.868;10.728;2022-12-31T18:26:20;5.30;;;3.20;;
70367;SDS011;57789;53.868;10.728;2022-12-31T18:28:47;8.87;;;3.37;;
70367;SDS011;57789;53.868;10.728;2022-12-31T18:31:31;4.80;;;3.57;;
70367;SDS011;57789;53.868;10.728;2022-12-31T18:33:57;4.70;;;3.80;;
70367;SDS011;57789;53.868;10.728;2022-12-31T18:36:23;44.80;;;28.53;;
70367;SDS011;57789;53.868;10.728;2022-12-31T18:38:50;34.17;;;23.00;;
70367;SDS011;57789;53.868;10.728;2022-12-31T18:43:46;21.73;;;14.27;;
70367;SDS011;57789;53.868;10.728;2022-12-31T18:46:18;59.87;;;36.20;;
70367;SDS011;57789;53.868;10.728;2022-12-31T18:48:45;11.03;;;5.13;;
70367;SDS011;57789;53.868;10.728;2022-12-31T18:51:12;83.70;;;54.13;;
70367;SDS011;57789;53.868;10.728;2022-12-31T18:53:43;49.17;;;28.43;;
70367;SDS011;57789;53.868;10.728;2022-12-31T18:56:10;63.27;;;49.87;;
70367;SDS011;57789;53.868;10.728;2022-12-31T18:58:37;17.10;;;11.60;;
70367;SDS011;57789;53.868;10.728;2022-12-31T19:01:04;99.57;;;72.10;;
70367;SDS011;57789;53.868;10.728;2022-12-31T19:03:29;44.37;;;31.30;;
70367;SDS011;57789;53.868;10.728;2022-12-31T19:05:55;46.87;;;31.17;;
70367;SDS011;57789;53.868;10.728;2022-12-31T19:08:22;36.10;;;27.93;;
70367;SDS011;57789;53.868;10.728;2022-12-31T19:10:51;19.00;;;11.67;;
70367;SDS011;57789;53.868;10.728;2022-12-31T19:13:18;18.93;;;12.87;;
70367;SDS011;57789;53.868;10.728;2022-12-31T19:15:48;37.90;;;22.57;;
70367;SDS011;57789;53.868;10.728;2022-12-31T19:18:16;36.73;;;19.40;;
70367;SDS011;57789;53.868;10.728;2022-12-31T19:20:42;21.30;;;15.50;;
70367;SDS011;57789;53.868;10.728;2022-12-31T19:23:15;32.27;;;23.90;;
70367;SDS011;57789;53.868;10.728;2022-12-31T19:25:46;51.40;;;32.17;;
70367;SDS011;57789;53.868;10.728;2022-12-31T19:28:17;50.60;;;34.50;;
70367;SDS011;57789;53.868;10.728;2022-12-31T19:30:49;56.80;;;34.70;;
70367;SDS011;57789;53.868;10.728;2022-12-31T19:33:16;46.20;;;34.30;;
70367;SDS011;57789;53.868;10.728;2022-12-31T19:35:42;36.43;;;24.67;;
70367;SDS011;57789;53.868;10.728;2022-12-31T19:38:19;56.13;;;34.20;;
70367;SDS011;57789;53.868;10.728;2022-12-31T19:40:46;43.17;;;27.97;;
70367;SDS011;57789;53.868;10.728;2022-12-31T19:43:14;34.07;;;22.93;;
70367;SDS011;57789;53.868;10.728;2022-12-31T19:45:41;42.80;;;25.53;;
70367;SDS011;57789;53.868;10.728;2022-12-31T19:48:12;74.60;;;50.10;;
70367;SDS011;57789;53.868;10.728;2022-12-31T19:50:41;100.87;;;74.43;;
70367;SDS011;57789;53.868;10.728;2022-12-31T19:53:16;52.37;;;34.83;;
70367;SDS011;57789;53.868;10.728;2022-12-31T19:55:47;55.57;;;37.93;;
70367;SDS011;57789;53.868;10.728;2022-12-31T19:58:20;62.90;;;39.80;;
70367;SDS011;57789;53.868;10.728;2022-12-31T20:00:52;62.83;;;38.83;;
70367;SDS011;57789;53.868;10.728;2022-12-31T20:03:21;46.70;;;33.63;;
70367;SDS011;57789;53.868;10.728;2022-12-31T20:05:47;55.53;;;35.03;;